createdAt,value
2017-09-26T00:01:12.802Z,14.76
2017-09-26T00:03:48.445Z,14.74
2017-09-26T00:06:23.023Z,14.72
2017-09-26T00:08:57.883Z,14.65
2017-09-26T00:11:32.755Z,14.58
2017-09-26T00:14:08.349Z,14.60
2017-09-26T00:16:43.407Z,14.60
2017-09-26T00:19:17.903Z,14.63
2017-09-26T00:21:52.654Z,14.70
2017-09-26T00:24:27.394Z,14.70
2017-09-26T00:27:02.265Z,14.63
2017-09-26T00:29:37.026Z,14.70
2017-09-26T00:32:11.746Z,14.66
2017-09-26T00:34:46.321Z,14.67
2017-09-26T00:37:20.989Z,14.58
2017-09-26T00:39:56.010Z,14.33
2017-09-26T00:42:30.805Z,14.33
2017-09-26T00:45:05.449Z,14.44
2017-09-26T00:47:40.455Z,14.45
2017-09-26T00:50:14.925Z,14.49
2017-09-26T00:52:49.573Z,14.59
2017-09-26T00:55:24.057Z,14.63
2017-09-26T00:57:58.795Z,14.64
2017-09-26T01:00:38.772Z,14.66
2017-09-26T01:03:13.869Z,14.65
2017-09-26T01:05:48.813Z,14.68
2017-09-26T01:08:23.272Z,14.72
2017-09-26T01:10:58.415Z,14.59
2017-09-26T01:13:33.174Z,14.52
2017-09-26T01:16:07.911Z,14.49
2017-09-26T01:18:43.441Z,14.57
2017-09-26T01:21:18.194Z,14.56
2017-09-26T01:23:52.268Z,14.59
2017-09-26T01:26:27.037Z,14.53
2017-09-26T01:29:01.475Z,14.51
2017-09-26T01:31:35.949Z,14.55
2017-09-26T01:34:10.749Z,14.52
2017-09-26T01:36:45.375Z,14.48
2017-09-26T01:39:20.013Z,14.57
2017-09-26T01:41:54.649Z,14.49
2017-09-26T01:44:29.260Z,14.43
2017-09-26T01:47:04.001Z,14.38
2017-09-26T01:49:38.553Z,14.44
2017-09-26T01:52:13.213Z,14.37
2017-09-26T01:54:47.913Z,14.45
2017-09-26T02:10:45.600Z,14.72
2017-09-26T02:13:20.227Z,14.75
2017-09-26T02:15:55.065Z,14.69
2017-09-26T02:18:29.612Z,14.72
2017-09-26T02:21:04.383Z,14.76
2017-09-26T02:23:38.989Z,14.75
2017-09-26T02:26:13.808Z,14.74
2017-09-26T02:28:48.580Z,14.77
2017-09-26T02:31:23.625Z,14.75
2017-09-26T02:33:58.549Z,14.72
2017-09-26T02:36:33.337Z,14.74
2017-09-26T02:39:08.120Z,14.79
2017-09-26T02:41:42.889Z,14.81
2017-09-26T02:44:17.564Z,14.86
2017-09-26T02:46:52.383Z,14.89
2017-09-26T02:49:27.112Z,14.90
2017-09-26T02:52:01.746Z,14.93
2017-09-26T02:54:36.337Z,14.89
2017-09-26T02:57:10.753Z,14.89
2017-09-26T02:59:45.920Z,14.89
2017-09-26T03:02:20.763Z,14.88
2017-09-26T03:04:55.561Z,14.85
2017-09-26T03:07:30.293Z,14.88
2017-09-26T03:10:05.032Z,14.87
2017-09-26T03:12:40.168Z,14.85
2017-09-26T03:15:15.439Z,14.76
2017-09-26T03:17:50.094Z,14.79
2017-09-26T03:20:24.825Z,14.73
2017-09-26T03:22:59.760Z,14.68
2017-09-26T03:25:34.517Z,14.70
2017-09-26T03:28:08.959Z,14.73
2017-09-26T03:30:43.502Z,14.71
2017-09-26T03:33:18.639Z,14.69
2017-09-26T03:35:53.569Z,14.61
2017-09-26T03:38:28.484Z,14.63
2017-09-26T03:41:03.747Z,14.62
2017-09-26T03:43:38.260Z,14.58
2017-09-26T03:46:12.801Z,14.60
2017-09-26T03:48:47.892Z,14.58
2017-09-26T03:51:22.592Z,14.61
2017-09-26T03:53:57.353Z,14.58
2017-09-26T03:56:32.191Z,14.60
2017-09-26T03:59:06.812Z,14.62
2017-09-26T04:01:41.851Z,14.67
2017-09-26T04:04:16.781Z,14.64
2017-09-26T04:06:51.169Z,14.55
2017-09-26T04:09:26.372Z,14.57
2017-09-26T04:12:01.121Z,14.59
2017-09-26T04:14:35.857Z,14.58
2017-09-26T04:17:10.624Z,14.58
2017-09-26T04:19:45.381Z,14.63
2017-09-26T04:22:20.478Z,14.62
2017-09-26T04:24:55.341Z,14.54
2017-09-26T04:27:30.127Z,14.61
2017-09-26T04:30:05.249Z,14.62
2017-09-26T04:32:39.929Z,14.56
2017-09-26T04:35:24.429Z,14.60
2017-09-26T04:37:59.057Z,14.58
2017-09-26T04:40:34.038Z,14.62
2017-09-26T04:43:09.049Z,14.62
2017-09-26T04:45:43.985Z,14.62
2017-09-26T04:48:18.850Z,14.64
2017-09-26T04:50:53.705Z,14.64
2017-09-26T04:53:29.231Z,14.51
2017-09-26T04:56:04.237Z,14.58
2017-09-26T04:58:38.989Z,14.61
2017-09-26T05:01:13.604Z,14.58
2017-09-26T05:03:48.411Z,14.57
2017-09-26T05:06:23.519Z,14.53
2017-09-26T05:08:58.257Z,14.58
2017-09-26T05:11:33.001Z,14.57
2017-09-26T05:14:07.932Z,14.56
2017-09-26T05:16:42.760Z,14.51
2017-09-26T05:19:17.091Z,14.53
2017-09-26T05:21:52.117Z,14.51
2017-09-26T05:24:26.925Z,14.56
2017-09-26T05:27:01.648Z,14.58
2017-09-26T05:29:36.451Z,14.58
2017-09-26T05:32:11.329Z,14.56
2017-09-26T05:34:46.266Z,14.60
2017-09-26T05:37:21.677Z,14.66
2017-09-26T05:39:56.732Z,14.68
2017-09-26T05:42:31.144Z,14.73
2017-09-26T05:45:05.985Z,14.80
2017-09-26T05:47:40.761Z,14.84
2017-09-26T05:50:15.729Z,14.87
2017-09-26T05:52:50.470Z,14.98
2017-09-26T05:55:25.485Z,14.96
2017-09-26T05:58:00.394Z,14.91
2017-09-26T06:00:35.463Z,14.94
2017-09-26T06:03:10.625Z,14.93
2017-09-26T06:05:45.266Z,14.95
2017-09-26T06:08:19.835Z,14.98
2017-09-26T06:10:54.656Z,14.95
2017-09-26T06:13:29.240Z,14.96
2017-09-26T06:16:03.918Z,15.00
2017-09-26T06:18:38.638Z,15.08
2017-09-26T06:21:14.278Z,15.14
2017-09-26T06:23:48.639Z,15.11
2017-09-26T06:26:23.265Z,15.19
2017-09-26T06:28:57.909Z,15.18
2017-09-26T06:31:32.449Z,15.26
2017-09-26T06:34:07.229Z,15.23
2017-09-26T06:36:41.887Z,15.09
2017-09-26T06:39:17.001Z,15.08
2017-09-26T06:41:51.848Z,14.98
2017-09-26T06:44:26.885Z,14.97
2017-09-26T06:47:01.629Z,14.91
2017-09-26T06:49:36.075Z,14.89
2017-09-26T06:52:10.967Z,14.97
2017-09-26T06:54:46.116Z,14.99
2017-09-26T06:57:21.145Z,14.96
2017-09-26T06:59:56.001Z,14.97
2017-09-26T07:02:30.778Z,15.03
2017-09-26T07:05:05.510Z,15.07
2017-09-26T07:07:41.230Z,15.19
2017-09-26T07:10:15.870Z,15.21
2017-09-26T07:12:50.715Z,15.21
2017-09-26T07:15:25.477Z,15.30
2017-09-26T07:18:00.156Z,15.27
2017-09-26T07:20:40.489Z,15.21
2017-09-26T07:23:15.393Z,15.26
2017-09-26T07:25:50.199Z,15.22
2017-09-26T07:28:25.865Z,15.18
2017-09-26T07:31:01.314Z,15.22
2017-09-26T07:33:36.125Z,15.10
2017-09-26T07:36:10.901Z,15.12
2017-09-26T07:38:45.896Z,15.22
2017-09-26T07:41:20.702Z,15.17
2017-09-26T07:43:55.658Z,15.20
2017-09-26T07:46:30.593Z,15.06
2017-09-26T07:49:05.517Z,15.10
2017-09-26T07:51:40.157Z,15.04
2017-09-26T07:54:14.838Z,15.14
2017-09-26T07:56:50.182Z,15.23
2017-09-26T07:59:24.829Z,15.33
2017-09-26T08:01:59.743Z,15.39
2017-09-26T08:04:34.517Z,15.39
2017-09-26T08:07:09.057Z,15.41
2017-09-26T08:09:43.773Z,15.45
2017-09-26T08:12:18.402Z,15.43
2017-09-26T08:14:53.140Z,15.46
2017-09-26T08:17:28.185Z,15.46
2017-09-26T08:20:03.015Z,15.39
2017-09-26T08:22:38.217Z,15.40
2017-09-26T08:25:12.989Z,15.51
2017-09-26T08:27:47.687Z,15.48
2017-09-26T08:30:23.311Z,15.55
2017-09-26T08:32:58.167Z,15.57
2017-09-26T08:35:33.024Z,15.57
2017-09-26T08:38:07.609Z,15.57
2017-09-26T08:40:42.185Z,15.51
2017-09-26T08:43:17.004Z,15.51
2017-09-26T08:45:51.795Z,15.77
2017-09-26T08:48:26.728Z,16.09
2017-09-26T08:51:01.783Z,16.08
2017-09-26T08:53:36.731Z,16.00
2017-09-26T08:56:12.050Z,16.04
2017-09-26T08:58:46.917Z,16.07
2017-09-26T09:01:21.728Z,15.95
2017-09-26T09:03:56.756Z,15.91
2017-09-26T09:06:31.423Z,15.96
2017-09-26T09:09:06.413Z,16.03
2017-09-26T09:11:41.169Z,16.14
2017-09-26T09:14:16.317Z,15.95
2017-09-26T09:16:50.945Z,15.82
2017-09-26T09:19:25.843Z,15.92
2017-09-26T09:22:00.708Z,16.10
2017-09-26T09:24:36.529Z,15.98
2017-09-26T09:27:11.233Z,16.20
2017-09-26T09:29:46.117Z,16.49
2017-09-26T09:32:21.437Z,16.68
2017-09-26T09:34:56.397Z,16.79
2017-09-26T09:37:31.301Z,16.80
2017-09-26T09:40:05.791Z,16.63
2017-09-26T09:42:40.834Z,16.51
2017-09-26T09:45:15.620Z,16.28
2017-09-26T09:47:51.049Z,16.39
2017-09-26T09:50:25.628Z,16.60
2017-09-26T09:53:00.574Z,16.58
2017-09-26T09:55:35.816Z,16.63
2017-09-26T09:58:10.833Z,16.61
2017-09-26T10:00:45.602Z,16.84
2017-09-26T10:03:20.606Z,16.92
2017-09-26T10:05:55.465Z,16.81
2017-09-26T10:08:30.391Z,16.90
2017-09-26T10:11:05.291Z,16.83
2017-09-26T10:13:39.930Z,16.83
2017-09-26T10:16:14.805Z,17.04
2017-09-26T10:18:49.580Z,17.27
2017-09-26T10:21:24.465Z,17.36
2017-09-26T10:23:59.370Z,17.35
2017-09-26T10:26:34.220Z,17.43
2017-09-26T10:29:09.018Z,17.35
2017-09-26T10:31:43.968Z,17.47
2017-09-26T10:34:18.906Z,17.57
2017-09-26T10:36:54.058Z,17.81
2017-09-26T10:39:29.185Z,17.56
2017-09-26T10:42:04.096Z,17.63
2017-09-26T10:44:39.415Z,17.42
2017-09-26T10:47:14.794Z,17.42
2017-09-26T10:49:49.776Z,17.48
2017-09-26T10:52:24.622Z,17.38
2017-09-26T10:54:59.628Z,17.38
2017-09-26T10:57:34.699Z,17.48
2017-09-26T11:00:09.756Z,17.52
2017-09-26T11:02:44.903Z,17.94
2017-09-26T11:05:19.825Z,18.25
2017-09-26T11:07:54.473Z,18.33
2017-09-26T11:10:29.550Z,18.13
2017-09-26T11:13:03.765Z,18.41
2017-09-26T11:15:38.659Z,18.73
2017-09-26T11:18:13.039Z,18.92
2017-09-26T11:20:48.500Z,18.97
2017-09-26T11:23:22.820Z,19.05
2017-09-26T11:25:57.772Z,18.84
2017-09-26T11:28:32.656Z,18.76
2017-09-26T11:31:07.630Z,18.74
2017-09-26T11:33:42.677Z,18.77
2017-09-26T11:36:17.573Z,19.02
2017-09-26T11:38:52.340Z,19.28
2017-09-26T11:41:27.361Z,19.47
2017-09-26T11:44:02.619Z,19.52
2017-09-26T11:46:37.750Z,19.28
2017-09-26T11:49:12.692Z,19.04
2017-09-26T11:51:48.101Z,18.68
2017-09-26T11:54:22.869Z,18.45
2017-09-26T11:56:57.473Z,18.32
2017-09-26T11:59:37.790Z,18.38
2017-09-26T12:02:12.325Z,18.40
2017-09-26T12:04:47.096Z,18.35
2017-09-26T12:07:22.088Z,18.33
2017-09-26T12:09:56.809Z,18.40
2017-09-26T12:12:31.604Z,18.41
2017-09-26T12:15:06.984Z,18.57
2017-09-26T12:17:42.300Z,18.64
2017-09-26T12:20:17.349Z,18.77
2017-09-26T12:22:52.159Z,18.94
2017-09-26T12:25:26.801Z,19.02
2017-09-26T12:28:01.921Z,18.90
2017-09-26T12:30:36.732Z,18.79
2017-09-26T12:33:11.576Z,18.86
2017-09-26T12:35:46.596Z,19.25
2017-09-26T12:38:21.025Z,19.38
2017-09-26T12:40:55.873Z,19.23
2017-09-26T12:43:30.814Z,19.30
2017-09-26T12:46:05.643Z,19.11
2017-09-26T12:48:40.501Z,18.84
2017-09-26T12:51:15.416Z,18.73
2017-09-26T12:53:50.255Z,18.82
2017-09-26T12:56:25.085Z,18.89
2017-09-26T12:59:00.109Z,19.16
2017-09-26T13:01:35.103Z,19.19
2017-09-26T13:04:10.014Z,19.16
2017-09-26T13:06:45.076Z,19.38
2017-09-26T13:09:19.972Z,19.52
2017-09-26T13:11:55.320Z,19.04
2017-09-26T13:14:30.216Z,18.69
2017-09-26T13:17:05.285Z,18.71
2017-09-26T13:19:39.621Z,18.71
2017-09-26T13:22:14.579Z,18.74
2017-09-26T13:24:49.848Z,18.74
2017-09-26T13:27:24.936Z,18.82
2017-09-26T13:29:59.440Z,18.91
2017-09-26T13:32:34.378Z,19.15
2017-09-26T13:35:09.178Z,19.35
2017-09-26T13:37:44.204Z,19.02
2017-09-26T13:40:18.914Z,18.88
2017-09-26T13:42:53.649Z,18.65
2017-09-26T13:45:28.505Z,18.84
2017-09-26T13:48:03.467Z,19.02
2017-09-26T13:50:38.143Z,18.94
2017-09-26T13:53:13.358Z,19.16
2017-09-26T13:55:47.791Z,19.36
2017-09-26T13:58:22.729Z,19.58
2017-09-26T14:00:57.569Z,19.83
2017-09-26T14:03:32.429Z,19.97
2017-09-26T14:06:07.254Z,20.11
2017-09-26T14:08:42.013Z,20.07
2017-09-26T14:11:16.856Z,20.16
2017-09-26T14:13:51.684Z,20.30
2017-09-26T14:16:26.818Z,19.71
2017-09-26T14:19:01.861Z,19.61
2017-09-26T14:21:36.816Z,19.85
2017-09-26T14:24:11.772Z,19.92
2017-09-26T14:26:46.809Z,19.72
2017-09-26T14:29:21.539Z,19.49
2017-09-26T14:31:56.353Z,19.00
2017-09-26T14:34:31.433Z,18.98
2017-09-26T14:37:06.457Z,18.91
2017-09-26T14:39:40.950Z,18.83
2017-09-26T14:42:15.687Z,18.82
2017-09-26T14:44:50.625Z,18.85
2017-09-26T14:47:25.433Z,18.92
2017-09-26T14:49:59.975Z,19.02
2017-09-26T14:52:34.696Z,19.24
2017-09-26T14:55:09.418Z,19.33
2017-09-26T14:57:43.969Z,19.31
2017-09-26T15:00:18.878Z,19.17
2017-09-26T15:02:54.629Z,19.02
2017-09-26T15:05:29.569Z,18.75
2017-09-26T15:08:04.287Z,18.73
2017-09-26T15:10:39.112Z,18.83
2017-09-26T15:13:14.401Z,18.85
2017-09-26T15:15:49.227Z,18.64
2017-09-26T15:18:24.414Z,18.57
2017-09-26T15:20:59.165Z,18.58
2017-09-26T15:23:33.985Z,18.45
2017-09-26T15:26:08.709Z,18.37
2017-09-26T15:28:43.643Z,18.25
2017-09-26T15:31:18.465Z,18.23
2017-09-26T15:33:53.430Z,18.20
2017-09-26T15:36:28.024Z,18.12
2017-09-26T15:39:02.540Z,18.08
2017-09-26T15:41:37.670Z,17.99
2017-09-26T15:44:12.755Z,18.01
2017-09-26T15:46:47.502Z,17.88
2017-09-26T15:49:22.461Z,17.70
2017-09-26T15:51:57.537Z,17.65
2017-09-26T15:54:32.357Z,17.58
2017-09-26T15:57:07.466Z,17.55
2017-09-26T15:59:42.273Z,17.51
2017-09-26T16:02:17.268Z,17.52
2017-09-26T16:04:52.144Z,17.42
2017-09-26T16:07:27.269Z,17.50
2017-09-26T16:10:02.059Z,17.49
2017-09-26T16:12:36.876Z,17.51
2017-09-26T16:15:11.756Z,17.61
2017-09-26T16:17:46.650Z,17.60
2017-09-26T16:20:21.497Z,17.56
2017-09-26T16:22:56.306Z,17.55
2017-09-26T16:25:31.153Z,17.57
2017-09-26T16:28:06.105Z,17.59
2017-09-26T16:30:40.944Z,17.68
2017-09-26T16:33:16.185Z,17.70
2017-09-26T16:35:52.490Z,17.76
2017-09-26T16:38:27.001Z,17.79
2017-09-26T16:41:01.608Z,17.86
2017-09-26T16:43:36.548Z,17.83
2017-09-26T16:46:11.545Z,17.78
2017-09-26T16:48:46.526Z,17.81
2017-09-26T16:51:21.632Z,17.69
2017-09-26T16:53:56.382Z,17.71
2017-09-26T16:56:31.745Z,17.64
2017-09-26T16:59:07.315Z,17.59
2017-09-26T17:01:42.717Z,17.57
2017-09-26T17:04:17.414Z,17.47
2017-09-26T17:06:52.168Z,17.36
2017-09-26T17:09:27.234Z,17.42
2017-09-26T17:12:02.160Z,17.49
2017-09-26T17:14:37.016Z,17.43
2017-09-26T17:17:12.354Z,17.26
2017-09-26T17:19:47.003Z,17.26
2017-09-26T17:22:21.745Z,17.28
2017-09-26T17:24:56.590Z,17.30
2017-09-26T17:27:31.442Z,17.29
2017-09-26T17:30:06.270Z,17.24
2017-09-26T17:32:41.137Z,17.17
2017-09-26T17:35:15.929Z,17.14
2017-09-26T17:37:50.888Z,17.05
2017-09-26T17:40:25.907Z,16.98
2017-09-26T17:43:01.309Z,16.93
2017-09-26T17:45:35.892Z,16.95
2017-09-26T17:48:11.942Z,16.96
2017-09-26T17:50:51.798Z,16.87
2017-09-26T17:53:26.465Z,16.83
2017-09-26T17:56:02.178Z,16.75
2017-09-26T17:58:36.657Z,16.62
2017-09-26T18:01:11.748Z,16.60
2017-09-26T18:03:46.846Z,16.48
2017-09-26T18:06:21.789Z,16.43
2017-09-26T18:08:56.349Z,16.37
2017-09-26T18:11:31.265Z,16.29
2017-09-26T18:27:08.584Z,16.37
2017-09-26T18:29:43.992Z,16.33
2017-09-26T18:32:18.805Z,16.33
2017-09-26T18:34:53.662Z,16.38
2017-09-26T18:37:28.202Z,16.43
2017-09-26T18:40:02.898Z,16.42
2017-09-26T18:42:37.594Z,16.40
2017-09-26T18:45:12.545Z,16.40
2017-09-26T18:47:47.738Z,16.42
2017-09-26T18:50:22.392Z,16.41
2017-09-26T18:52:57.348Z,16.42
2017-09-26T18:55:32.037Z,16.36
2017-09-26T18:58:06.955Z,16.37
2017-09-26T19:00:42.800Z,16.38
2017-09-26T19:03:17.230Z,16.43
2017-09-26T19:05:51.973Z,16.46
2017-09-26T19:08:26.729Z,16.46
2017-09-26T19:11:01.473Z,16.45
2017-09-26T19:13:36.126Z,16.46
2017-09-26T19:16:13.189Z,16.44
2017-09-26T19:18:48.668Z,16.42
2017-09-26T19:21:23.410Z,16.42
2017-09-26T19:23:58.266Z,16.37
2017-09-26T19:26:33.128Z,16.34
2017-09-26T19:29:07.933Z,16.26
2017-09-26T19:31:42.717Z,16.19
2017-09-26T19:34:17.345Z,16.19
2017-09-26T19:36:52.052Z,16.24
2017-09-26T19:39:26.973Z,16.30
2017-09-26T19:42:02.682Z,16.30
2017-09-26T19:44:37.400Z,16.28
2017-09-26T19:47:12.199Z,16.27
2017-09-26T19:49:47.013Z,16.25
2017-09-26T19:52:21.747Z,16.15
2017-09-26T19:54:56.293Z,16.10
2017-09-26T19:57:31.970Z,16.11
2017-09-26T20:00:06.942Z,16.12
2017-09-26T20:02:41.464Z,16.05
2017-09-26T20:05:16.229Z,15.96
2017-09-26T20:07:51.283Z,15.89
2017-09-26T20:10:25.865Z,15.80
2017-09-26T20:13:00.688Z,15.77
2017-09-26T20:15:35.492Z,15.69
2017-09-26T20:18:10.340Z,15.52
2017-09-26T20:20:45.552Z,15.47
2017-09-26T20:23:20.509Z,15.45
2017-09-26T20:25:55.648Z,15.31
2017-09-26T20:28:30.157Z,15.25
2017-09-26T20:31:04.892Z,15.09
2017-09-26T20:33:39.641Z,15.10
2017-09-26T20:36:14.503Z,15.02
2017-09-26T20:38:49.397Z,15.03
2017-09-26T20:41:24.152Z,14.96
2017-09-26T20:43:59.325Z,15.08
2017-09-26T20:46:33.870Z,14.98
2017-09-26T20:49:08.655Z,14.91
2017-09-26T20:51:43.508Z,14.98
2017-09-26T20:54:18.219Z,15.08
2017-09-26T20:56:52.736Z,14.96
2017-09-26T20:59:27.677Z,14.99
2017-09-26T21:02:02.333Z,14.89
2017-09-26T21:04:37.108Z,14.90
2017-09-26T21:07:11.965Z,14.99
2017-09-26T21:09:46.693Z,14.89
2017-09-26T21:12:21.328Z,14.84
2017-09-26T21:14:56.216Z,14.77
2017-09-26T21:17:31.209Z,14.79
2017-09-26T21:20:05.711Z,14.82
2017-09-26T21:22:40.703Z,14.71
2017-09-26T21:25:15.450Z,14.77
2017-09-26T21:27:50.292Z,14.68
2017-09-26T21:30:24.966Z,14.67
2017-09-26T21:32:59.612Z,14.59
2017-09-26T21:35:34.615Z,14.60
2017-09-26T21:38:09.979Z,14.58
2017-09-26T21:40:45.061Z,14.60
2017-09-26T21:43:20.265Z,14.59
2017-09-26T21:45:55.216Z,14.65
2017-09-26T21:48:30.376Z,14.56
2017-09-26T21:51:05.298Z,14.55
2017-09-26T21:53:40.228Z,14.57
2017-09-26T21:56:14.724Z,14.37
2017-09-26T21:58:49.693Z,14.46
2017-09-26T22:01:25.157Z,14.45
2017-09-26T22:03:59.872Z,14.45
2017-09-26T22:06:34.608Z,14.43
2017-09-26T22:09:09.441Z,14.45
2017-09-26T22:11:43.933Z,14.45
2017-09-26T22:14:19.195Z,14.49
2017-09-26T22:16:54.361Z,14.47
2017-09-26T22:19:29.154Z,14.53
2017-09-26T22:22:04.005Z,14.43
2017-09-26T22:24:38.800Z,14.51
2017-09-26T22:27:13.709Z,14.49
2017-09-26T22:29:48.527Z,14.50
2017-09-26T22:32:23.293Z,14.50
2017-09-26T22:34:57.973Z,14.52
2017-09-26T22:37:33.464Z,14.49
2017-09-26T22:40:08.248Z,14.46
2017-09-26T22:42:43.079Z,14.48
2017-09-26T22:45:17.723Z,14.47
2017-09-26T22:47:52.537Z,14.45
2017-09-26T22:50:28.525Z,14.36
2017-09-26T22:53:03.477Z,14.43
2017-09-26T22:55:38.450Z,14.45
2017-09-26T22:58:13.354Z,14.43
2017-09-26T23:00:47.757Z,14.42
2017-09-26T23:03:23.087Z,14.34
2017-09-26T23:05:58.200Z,14.28
2017-09-26T23:08:32.445Z,14.33
2017-09-26T23:11:07.750Z,14.34
2017-09-26T23:13:42.985Z,14.34
2017-09-26T23:16:17.925Z,14.36
2017-09-26T23:18:52.734Z,14.35
2017-09-26T23:21:27.676Z,14.32
2017-09-26T23:24:02.589Z,14.33
2017-09-26T23:26:37.405Z,14.32
2017-09-26T23:29:12.704Z,14.32
2017-09-26T23:31:48.425Z,14.34
2017-09-26T23:34:23.049Z,14.33
2017-09-26T23:36:58.056Z,14.31
2017-09-26T23:39:32.884Z,14.30
2017-09-26T23:42:07.861Z,14.31
2017-09-26T23:44:42.401Z,14.30
2017-09-26T23:47:17.305Z,14.29
2017-09-26T23:49:52.097Z,14.26
2017-09-26T23:52:26.573Z,14.24
2017-09-26T23:55:01.302Z,14.20
2017-09-26T23:57:36.315Z,14.18
